sensor_id;sensor_type;location;lat;lon;timestamp;P1;durP1;ratioP1;P2;durP2;ratioP2
11681;SDS011;5897;42.640;23.310;2022-08-14T00:02:26;28.10;;;21.83;;
11681;SDS011;5897;42.640;23.310;2022-08-14T00:04:54;25.30;;;20.45;;
11681;SDS011;5897;42.640;23.310;2022-08-14T00:07:21;27.42;;;20.25;;
11681;SDS011;5897;42.640;23.310;2022-08-14T00:09:48;26.27;;;19.50;;
11681;SDS011;5897;42.640;23.310;2022-08-14T00:12:14;30.27;;;22.45;;
11681;SDS011;5897;42.640;23.310;2022-08-14T00:14:41;30.25;;;22.10;;
11681;SDS011;5897;42.640;23.310;2022-08-14T00:17:08;31.13;;;22.35;;
11681;SDS011;5897;42.640;23.310;2022-08-14T00:19:35;31.77;;;23.02;;
11681;SDS011;5897;42.640;23.310;2022-08-14T00:22:03;32.67;;;22.48;;
11681;SDS011;5897;42.640;23.310;2022-08-14T00:24:30;28.58;;;21.77;;
11681;SDS011;5897;42.640;23.310;2022-08-14T00:26:57;29.27;;;21.48;;
11681;SDS011;5897;42.640;23.310;2022-08-14T00:29:24;26.48;;;20.02;;
11681;SDS011;5897;42.640;23.310;2022-08-14T00:31:50;27.20;;;20.23;;
11681;SDS011;5897;42.640;23.310;2022-08-14T00:34:17;25.95;;;19.73;;
11681;SDS011;5897;42.640;23.310;2022-08-14T00:36:44;26.42;;;20.15;;
11681;SDS011;5897;42.640;23.310;2022-08-14T00:39:13;23.48;;;18.75;;
11681;SDS011;5897;42.640;23.310;2022-08-14T00:41:40;24.15;;;18.08;;
11681;SDS011;5897;42.640;23.310;2022-08-14T00:44:08;24.38;;;18.58;;
11681;SDS011;5897;42.640;23.310;2022-08-14T00:46:35;24.63;;;18.70;;
11681;SDS011;5897;42.640;23.310;2022-08-14T00:49:02;21.65;;;17.77;;
11681;SDS011;5897;42.640;23.310;2022-08-14T00:51:29;20.83;;;16.83;;
11681;SDS011;5897;42.640;23.310;2022-08-14T00:53:57;19.38;;;16.30;;
11681;SDS011;5897;42.640;23.310;2022-08-14T00:56:26;21.92;;;16.92;;
11681;SDS011;5897;42.640;23.310;2022-08-14T00:58:53;25.48;;;16.92;;
11681;SDS011;5897;42.640;23.310;2022-08-14T01:01:22;23.67;;;19.05;;
11681;SDS011;5897;42.640;23.310;2022-08-14T01:03:49;20.70;;;17.33;;
11681;SDS011;5897;42.640;23.310;2022-08-14T01:06:18;24.27;;;18.80;;
11681;SDS011;5897;42.640;23.310;2022-08-14T01:08:45;25.83;;;19.58;;
11681;SDS011;5897;42.640;23.310;2022-08-14T01:11:14;33.70;;;24.60;;
11681;SDS011;5897;42.640;23.310;2022-08-14T01:13:43;29.95;;;22.50;;
11681;SDS011;5897;42.640;23.310;2022-08-14T01:16:11;31.35;;;22.60;;
11681;SDS011;5897;42.640;23.310;2022-08-14T01:18:39;27.65;;;20.52;;
11681;SDS011;5897;42.640;23.310;2022-08-14T01:21:26;28.52;;;20.35;;
11681;SDS011;5897;42.640;23.310;2022-08-14T01:23:57;27.08;;;20.52;;
11681;SDS011;5897;42.640;23.310;2022-08-14T01:26:25;28.55;;;20.75;;
11681;SDS011;5897;42.640;23.310;2022-08-14T01:28:53;30.77;;;22.65;;
11681;SDS011;5897;42.640;23.310;2022-08-14T01:31:22;40.83;;;27.77;;
11681;SDS011;5897;42.640;23.310;2022-08-14T01:33:51;35.15;;;24.92;;
11681;SDS011;5897;42.640;23.310;2022-08-14T01:36:19;32.20;;;22.40;;
11681;SDS011;5897;42.640;23.310;2022-08-14T01:38:47;26.02;;;18.77;;
11681;SDS011;5897;42.640;23.310;2022-08-14T01:41:16;23.73;;;17.55;;
11681;SDS011;5897;42.640;23.310;2022-08-14T01:43:45;25.10;;;18.58;;
11681;SDS011;5897;42.640;23.310;2022-08-14T01:46:15;30.45;;;21.77;;
11681;SDS011;5897;42.640;23.310;2022-08-14T01:48:42;35.67;;;23.90;;
11681;SDS011;5897;42.640;23.310;2022-08-14T01:51:11;34.72;;;24.88;;
11681;SDS011;5897;42.640;23.310;2022-08-14T01:53:40;39.22;;;27.45;;
11681;SDS011;5897;42.640;23.310;2022-08-14T01:56:10;39.90;;;27.48;;
11681;SDS011;5897;42.640;23.310;2022-08-14T01:58:37;46.42;;;29.45;;
11681;SDS011;5897;42.640;23.310;2022-08-14T02:01:04;42.05;;;27.30;;
11681;SDS011;5897;42.640;23.310;2022-08-14T02:03:31;48.20;;;30.65;;
11681;SDS011;5897;42.640;23.310;2022-08-14T02:06:05;45.60;;;30.05;;
11681;SDS011;5897;42.640;23.310;2022-08-14T02:08:32;47.47;;;30.65;;
11681;SDS011;5897;42.640;23.310;2022-08-14T02:11:02;46.25;;;31.27;;
11681;SDS011;5897;42.640;23.310;2022-08-14T02:13:50;48.83;;;31.20;;
11681;SDS011;5897;42.640;23.310;2022-08-14T02:16:21;43.55;;;29.60;;
11681;SDS011;5897;42.640;23.310;2022-08-14T02:18:51;43.33;;;28.92;;
11681;SDS011;5897;42.640;23.310;2022-08-14T02:21:19;41.90;;;28.92;;
11681;SDS011;5897;42.640;23.310;2022-08-14T02:23:46;43.40;;;28.80;;
11681;SDS011;5897;42.640;23.310;2022-08-14T02:26:18;35.13;;;25.83;;
11681;SDS011;5897;42.640;23.310;2022-08-14T02:28:49;34.35;;;24.70;;
11681;SDS011;5897;42.640;23.310;2022-08-14T02:31:18;34.00;;;24.35;;
11681;SDS011;5897;42.640;23.310;2022-08-14T02:33:46;31.77;;;24.35;;
11681;SDS011;5897;42.640;23.310;2022-08-14T02:36:13;33.83;;;24.70;;
11681;SDS011;5897;42.640;23.310;2022-08-14T02:38:41;31.52;;;24.35;;
11681;SDS011;5897;42.640;23.310;2022-08-14T02:41:09;32.55;;;23.35;;
11681;SDS011;5897;42.640;23.310;2022-08-14T02:43:38;31.45;;;23.10;;
11681;SDS011;5897;42.640;23.310;2022-08-14T02:46:08;33.05;;;23.27;;
11681;SDS011;5897;42.640;23.310;2022-08-14T02:48:38;30.10;;;23.17;;
11681;SDS011;5897;42.640;23.310;2022-08-14T02:51:07;34.10;;;25.00;;
11681;SDS011;5897;42.640;23.310;2022-08-14T02:53:36;31.77;;;23.77;;
11681;SDS011;5897;42.640;23.310;2022-08-14T02:56:05;30.75;;;23.23;;
11681;SDS011;5897;42.640;23.310;2022-08-14T02:58:35;27.85;;;21.27;;
11681;SDS011;5897;42.640;23.310;2022-08-14T03:01:04;26.70;;;20.42;;
11681;SDS011;5897;42.640;23.310;2022-08-14T03:03:33;27.80;;;21.27;;
11681;SDS011;5897;42.640;23.310;2022-08-14T03:06:01;26.95;;;21.08;;
11681;SDS011;5897;42.640;23.310;2022-08-14T03:08:28;32.17;;;22.27;;
11681;SDS011;5897;42.640;23.310;2022-08-14T03:10:57;31.33;;;22.70;;
11681;SDS011;5897;42.640;23.310;2022-08-14T03:13:24;30.10;;;22.33;;
11681;SDS011;5897;42.640;23.310;2022-08-14T03:15:51;31.50;;;21.48;;
11681;SDS011;5897;42.640;23.310;2022-08-14T03:18:19;25.50;;;20.92;;
11681;SDS011;5897;42.640;23.310;2022-08-14T03:20:49;24.92;;;19.67;;
11681;SDS011;5897;42.640;23.310;2022-08-14T03:23:16;23.38;;;18.08;;
11681;SDS011;5897;42.640;23.310;2022-08-14T03:25:43;25.80;;;19.80;;
11681;SDS011;5897;42.640;23.310;2022-08-14T03:28:10;23.45;;;18.50;;
11681;SDS011;5897;42.640;23.310;2022-08-14T03:30:38;26.40;;;19.23;;
11681;SDS011;5897;42.640;23.310;2022-08-14T03:33:05;27.02;;;19.08;;
11681;SDS011;5897;42.640;23.310;2022-08-14T03:35:33;21.70;;;18.70;;
11681;SDS011;5897;42.640;23.310;2022-08-14T03:38:05;23.88;;;18.00;;
11681;SDS011;5897;42.640;23.310;2022-08-14T03:40:34;23.60;;;18.58;;
11681;SDS011;5897;42.640;23.310;2022-08-14T03:43:02;24.88;;;18.92;;
11681;SDS011;5897;42.640;23.310;2022-08-14T03:45:29;19.25;;;17.25;;
11681;SDS011;5897;42.640;23.310;2022-08-14T03:47:56;20.35;;;18.00;;
11681;SDS011;5897;42.640;23.310;2022-08-14T03:50:25;21.48;;;18.45;;
11681;SDS011;5897;42.640;23.310;2022-08-14T03:52:52;20.17;;;17.63;;
11681;SDS011;5897;42.640;23.310;2022-08-14T03:55:20;27.50;;;19.00;;
11681;SDS011;5897;42.640;23.310;2022-08-14T03:57:46;23.55;;;19.55;;
11681;SDS011;5897;42.640;23.310;2022-08-14T04:00:13;22.45;;;19.23;;
11681;SDS011;5897;42.640;23.310;2022-08-14T04:02:41;21.15;;;18.85;;
11681;SDS011;5897;42.640;23.310;2022-08-14T04:05:08;22.48;;;18.70;;
11681;SDS011;5897;42.640;23.310;2022-08-14T04:07:35;18.92;;;16.92;;
11681;SDS011;5897;42.640;23.310;2022-08-14T04:10:03;19.40;;;16.98;;
11681;SDS011;5897;42.640;23.310;2022-08-14T04:12:32;19.25;;;17.23;;
11681;SDS011;5897;42.640;23.310;2022-08-14T04:15:00;20.10;;;17.17;;
11681;SDS011;5897;42.640;23.310;2022-08-14T04:17:26;22.63;;;18.40;;
11681;SDS011;5897;42.640;23.310;2022-08-14T04:19:53;21.63;;;19.25;;
11681;SDS011;5897;42.640;23.310;2022-08-14T04:22:20;23.40;;;18.70;;
11681;SDS011;5897;42.640;23.310;2022-08-14T04:24:48;24.02;;;19.88;;
11681;SDS011;5897;42.640;23.310;2022-08-14T04:27:17;21.98;;;18.92;;
11681;SDS011;5897;42.640;23.310;2022-08-14T04:29:45;21.90;;;19.60;;
11681;SDS011;5897;42.640;23.310;2022-08-14T04:32:12;21.15;;;18.75;;
11681;SDS011;5897;42.640;23.310;2022-08-14T04:34:39;24.27;;;20.70;;
11681;SDS011;5897;42.640;23.310;2022-08-14T04:37:06;25.33;;;21.35;;
11681;SDS011;5897;42.640;23.310;2022-08-14T04:40:05;22.67;;;20.38;;
11681;SDS011;5897;42.640;23.310;2022-08-14T04:42:50;24.60;;;22.00;;
11681;SDS011;5897;42.640;23.310;2022-08-14T04:45:36;21.15;;;18.92;;
11681;SDS011;5897;42.640;23.310;2022-08-14T04:48:05;20.77;;;18.50;;
11681;SDS011;5897;42.640;23.310;2022-08-14T04:50:39;20.50;;;18.33;;
11681;SDS011;5897;42.640;23.310;2022-08-14T04:53:07;19.50;;;17.52;;
11681;SDS011;5897;42.640;23.310;2022-08-14T04:55:37;19.77;;;17.77;;
11681;SDS011;5897;42.640;23.310;2022-08-14T04:58:04;18.42;;;16.60;;
11681;SDS011;5897;42.640;23.310;2022-08-14T05:00:31;18.23;;;16.48;;
11681;SDS011;5897;42.640;23.310;2022-08-14T05:02:59;17.23;;;15.52;;
11681;SDS011;5897;42.640;23.310;2022-08-14T05:05:28;16.10;;;14.40;;
11681;SDS011;5897;42.640;23.310;2022-08-14T05:08:02;15.77;;;14.25;;
11681;SDS011;5897;42.640;23.310;2022-08-14T05:10:34;15.68;;;14.18;;
11681;SDS011;5897;42.640;23.310;2022-08-14T05:13:01;14.77;;;13.27;;
11681;SDS011;5897;42.640;23.310;2022-08-14T05:15:29;14.85;;;13.40;;
11681;SDS011;5897;42.640;23.310;2022-08-14T05:17:57;14.18;;;12.68;;
11681;SDS011;5897;42.640;23.310;2022-08-14T05:20:28;15.02;;;13.10;;
11681;SDS011;5897;42.640;23.310;2022-08-14T05:22:55;14.07;;;12.77;;
11681;SDS011;5897;42.640;23.310;2022-08-14T05:25:23;13.75;;;12.40;;
11681;SDS011;5897;42.640;23.310;2022-08-14T05:27:50;14.55;;;13.15;;
11681;SDS011;5897;42.640;23.310;2022-08-14T05:30:16;15.73;;;14.07;;
11681;SDS011;5897;42.640;23.310;2022-08-14T05:32:43;17.70;;;15.90;;
11681;SDS011;5897;42.640;23.310;2022-08-14T05:35:10;19.13;;;16.48;;
11681;SDS011;5897;42.640;23.310;2022-08-14T05:37:38;18.13;;;16.42;;
11681;SDS011;5897;42.640;23.310;2022-08-14T05:40:06;17.58;;;15.77;;
11681;SDS011;5897;42.640;23.310;2022-08-14T05:42:34;17.50;;;15.63;;
11681;SDS011;5897;42.640;23.310;2022-08-14T05:45:04;17.38;;;15.52;;
11681;SDS011;5897;42.640;23.310;2022-08-14T05:47:32;16.90;;;15.10;;
11681;SDS011;5897;42.640;23.310;2022-08-14T05:50:08;17.73;;;15.88;;
11681;SDS011;5897;42.640;23.310;2022-08-14T05:52:38;19.33;;;17.42;;
11681;SDS011;5897;42.640;23.310;2022-08-14T05:55:06;19.27;;;17.02;;
11681;SDS011;5897;42.640;23.310;2022-08-14T05:57:44;17.70;;;15.90;;
11681;SDS011;5897;42.640;23.310;2022-08-14T06:00:12;19.35;;;17.40;;
11681;SDS011;5897;42.640;23.310;2022-08-14T06:02:39;18.08;;;15.45;;
11681;SDS011;5897;42.640;23.310;2022-08-14T06:05:06;19.20;;;17.15;;
11681;SDS011;5897;42.640;23.310;2022-08-14T06:07:34;20.52;;;18.52;;
11681;SDS011;5897;42.640;23.310;2022-08-14T06:10:03;19.55;;;17.65;;
11681;SDS011;5897;42.640;23.310;2022-08-14T06:12:31;18.73;;;16.73;;
11681;SDS011;5897;42.640;23.310;2022-08-14T06:14:58;19.10;;;17.15;;
11681;SDS011;5897;42.640;23.310;2022-08-14T06:17:24;21.27;;;17.88;;
11681;SDS011;5897;42.640;23.310;2022-08-14T06:19:51;19.67;;;17.08;;
11681;SDS011;5897;42.640;23.310;2022-08-14T06:22:18;21.52;;;19.30;;
11681;SDS011;5897;42.640;23.310;2022-08-14T06:24:45;20.98;;;18.80;;
11681;SDS011;5897;42.640;23.310;2022-08-14T06:27:13;19.75;;;17.75;;
11681;SDS011;5897;42.640;23.310;2022-08-14T06:29:40;19.65;;;17.65;;
11681;SDS011;5897;42.640;23.310;2022-08-14T06:32:09;19.77;;;17.85;;
11681;SDS011;5897;42.640;23.310;2022-08-14T06:34:36;20.42;;;18.27;;
11681;SDS011;5897;42.640;23.310;2022-08-14T06:37:03;17.90;;;16.10;;
11681;SDS011;5897;42.640;23.310;2022-08-14T06:39:30;18.60;;;16.77;;
11681;SDS011;5897;42.640;23.310;2022-08-14T06:41:58;16.65;;;14.95;;
11681;SDS011;5897;42.640;23.310;2022-08-14T06:44:27;18.88;;;17.00;;
11681;SDS011;5897;42.640;23.310;2022-08-14T06:46:54;19.30;;;17.30;;
11681;SDS011;5897;42.640;23.310;2022-08-14T06:49:24;21.27;;;19.05;;
11681;SDS011;5897;42.640;23.310;2022-08-14T06:51:52;21.88;;;19.42;;
11681;SDS011;5897;42.640;23.310;2022-08-14T06:54:22;20.58;;;18.48;;
11681;SDS011;5897;42.640;23.310;2022-08-14T06:56:49;20.58;;;18.48;;
11681;SDS011;5897;42.640;23.310;2022-08-14T06:59:17;19.45;;;17.55;;
11681;SDS011;5897;42.640;23.310;2022-08-14T07:01:46;21.70;;;19.27;;
11681;SDS011;5897;42.640;23.310;2022-08-14T07:04:30;26.77;;;19.85;;
11681;SDS011;5897;42.640;23.310;2022-08-14T07:07:14;22.77;;;20.13;;
11681;SDS011;5897;42.640;23.310;2022-08-14T07:09:42;22.83;;;20.52;;
11681;SDS011;5897;42.640;23.310;2022-08-14T07:12:09;21.55;;;19.38;;
11681;SDS011;5897;42.640;23.310;2022-08-14T07:14:37;21.48;;;19.23;;
11681;SDS011;5897;42.640;23.310;2022-08-14T07:17:14;23.42;;;21.02;;
11681;SDS011;5897;42.640;23.310;2022-08-14T07:19:42;23.50;;;19.42;;
11681;SDS011;5897;42.640;23.310;2022-08-14T07:22:09;20.45;;;18.08;;
11681;SDS011;5897;42.640;23.310;2022-08-14T07:24:36;17.20;;;15.35;;
11681;SDS011;5897;42.640;23.310;2022-08-14T07:27:05;12.80;;;11.60;;
11681;SDS011;5897;42.640;23.310;2022-08-14T07:29:32;11.73;;;10.60;;
11681;SDS011;5897;42.640;23.310;2022-08-14T07:32:01;11.77;;;10.43;;
11681;SDS011;5897;42.640;23.310;2022-08-14T07:34:30;12.63;;;10.10;;
11681;SDS011;5897;42.640;23.310;2022-08-14T07:36:58;19.60;;;14.40;;
11681;SDS011;5897;42.640;23.310;2022-08-14T07:39:25;10.15;;;9.18;;
11681;SDS011;5897;42.640;23.310;2022-08-14T07:41:52;11.18;;;9.98;;
11681;SDS011;5897;42.640;23.310;2022-08-14T07:44:19;7.50;;;6.68;;
11681;SDS011;5897;42.640;23.310;2022-08-14T07:46:46;6.55;;;5.70;;
11681;SDS011;5897;42.640;23.310;2022-08-14T07:49:13;5.55;;;5.05;;
11681;SDS011;5897;42.640;23.310;2022-08-14T07:51:41;5.65;;;5.15;;
11681;SDS011;5897;42.640;23.310;2022-08-14T07:54:08;6.65;;;5.82;;
11681;SDS011;5897;42.640;23.310;2022-08-14T07:56:35;5.53;;;5.03;;
11681;SDS011;5897;42.640;23.310;2022-08-14T07:59:02;5.80;;;4.80;;
11681;SDS011;5897;42.640;23.310;2022-08-14T08:01:30;5.43;;;4.93;;
11681;SDS011;5897;42.640;23.310;2022-08-14T08:03:57;5.30;;;4.80;;
11681;SDS011;5897;42.640;23.310;2022-08-14T08:06:29;5.63;;;4.82;;
11681;SDS011;5897;42.640;23.310;2022-08-14T08:08:58;5.70;;;5.20;;
11681;SDS011;5897;42.640;23.310;2022-08-14T08:11:25;5.60;;;5.10;;
11681;SDS011;5897;42.640;23.310;2022-08-14T08:13:54;5.43;;;4.80;;
11681;SDS011;5897;42.640;23.310;2022-08-14T08:16:22;5.13;;;4.72;;
11681;SDS011;5897;42.640;23.310;2022-08-14T08:18:49;5.30;;;4.80;;
11681;SDS011;5897;42.640;23.310;2022-08-14T08:21:16;5.65;;;4.90;;
11681;SDS011;5897;42.640;23.310;2022-08-14T08:23:43;6.00;;;5.38;;
11681;SDS011;5897;42.640;23.310;2022-08-14T08:26:11;5.32;;;4.78;;
11681;SDS011;5897;42.640;23.310;2022-08-14T08:28:38;5.18;;;4.68;;
11681;SDS011;5897;42.640;23.310;2022-08-14T08:31:05;5.30;;;4.88;;
11681;SDS011;5897;42.640;23.310;2022-08-14T08:33:33;7.18;;;4.72;;
11681;SDS011;5897;42.640;23.310;2022-08-14T08:36:03;5.47;;;4.97;;
11681;SDS011;5897;42.640;23.310;2022-08-14T08:38:31;5.53;;;5.03;;
11681;SDS011;5897;42.640;23.310;2022-08-14T08:40:59;5.53;;;4.95;;
11681;SDS011;5897;42.640;23.310;2022-08-14T08:43:29;5.22;;;4.82;;
11681;SDS011;5897;42.640;23.310;2022-08-14T08:45:58;6.40;;;5.05;;
11681;SDS011;5897;42.640;23.310;2022-08-14T08:48:26;5.53;;;5.13;;
11681;SDS011;5897;42.640;23.310;2022-08-14T08:50:54;5.82;;;5.32;;
11681;SDS011;5897;42.640;23.310;2022-08-14T08:53:22;6.47;;;5.30;;
11681;SDS011;5897;42.640;23.310;2022-08-14T08:55:54;5.70;;;5.20;;
11681;SDS011;5897;42.640;23.310;2022-08-14T08:58:21;5.38;;;4.90;;
11681;SDS011;5897;42.640;23.310;2022-08-14T09:00:50;5.25;;;4.75;;
11681;SDS011;5897;42.640;23.310;2022-08-14T09:03:19;6.28;;;5.28;;
11681;SDS011;5897;42.640;23.310;2022-08-14T09:05:49;5.63;;;4.88;;
11681;SDS011;5897;42.640;23.310;2022-08-14T09:08:18;6.13;;;4.80;;
11681;SDS011;5897;42.640;23.310;2022-08-14T09:10:46;5.90;;;5.18;;
11681;SDS011;5897;42.640;23.310;2022-08-14T09:13:14;5.88;;;5.38;;
11681;SDS011;5897;42.640;23.310;2022-08-14T09:15:42;5.80;;;5.30;;
11681;SDS011;5897;42.640;23.310;2022-08-14T09:18:12;6.57;;;5.97;;
11681;SDS011;5897;42.640;23.310;2022-08-14T09:20:41;6.20;;;5.60;;
11681;SDS011;5897;42.640;23.310;2022-08-14T09:23:11;6.05;;;5.55;;
11681;SDS011;5897;42.640;23.310;2022-08-14T09:25:39;6.10;;;5.60;;
11681;SDS011;5897;42.640;23.310;2022-08-14T09:28:08;6.25;;;5.72;;
11681;SDS011;5897;42.640;23.310;2022-08-14T09:30:36;7.05;;;6.45;;
11681;SDS011;5897;42.640;23.310;2022-08-14T09:33:15;7.38;;;6.78;;
11681;SDS011;5897;42.640;23.310;2022-08-14T09:36:24;7.25;;;6.55;;
11681;SDS011;5897;42.640;23.310;2022-08-14T09:39:04;7.45;;;6.57;;
11681;SDS011;5897;42.640;23.310;2022-08-14T09:41:36;6.28;;;5.78;;
11681;SDS011;5897;42.640;23.310;2022-08-14T09:44:15;8.50;;;6.68;;
11681;SDS011;5897;42.640;23.310;2022-08-14T09:46:54;6.60;;;6.00;;
11681;SDS011;5897;42.640;23.310;2022-08-14T09:49:33;7.40;;;6.53;;
11681;SDS011;5897;42.640;23.310;2022-08-14T09:52:04;6.55;;;5.95;;
11681;SDS011;5897;42.640;23.310;2022-08-14T09:54:35;6.57;;;5.82;;
11681;SDS011;5897;42.640;23.310;2022-08-14T09:57:03;6.22;;;5.57;;
11681;SDS011;5897;42.640;23.310;2022-08-14T09:59:38;6.43;;;5.93;;
11681;SDS011;5897;42.640;23.310;2022-08-14T10:02:17;9.18;;;6.40;;
11681;SDS011;5897;42.640;23.310;2022-08-14T10:04:57;6.68;;;6.07;;
11681;SDS011;5897;42.640;23.310;2022-08-14T10:07:28;6.70;;;5.68;;
11681;SDS011;5897;42.640;23.310;2022-08-14T10:09:56;6.82;;;5.93;;
11681;SDS011;5897;42.640;23.310;2022-08-14T10:12:24;8.45;;;6.05;;
11681;SDS011;5897;42.640;23.310;2022-08-14T10:14:54;6.95;;;6.28;;
11681;SDS011;5897;42.640;23.310;2022-08-14T10:17:21;6.35;;;5.75;;
11681;SDS011;5897;42.640;23.310;2022-08-14T10:19:52;7.55;;;6.10;;
11681;SDS011;5897;42.640;23.310;2022-08-14T10:22:23;7.43;;;6.72;;
11681;SDS011;5897;42.640;23.310;2022-08-14T10:24:52;6.90;;;6.30;;
11681;SDS011;5897;42.640;23.310;2022-08-14T10:27:20;6.28;;;5.78;;
11681;SDS011;5897;42.640;23.310;2022-08-14T10:29:49;6.70;;;6.05;;
11681;SDS011;5897;42.640;23.310;2022-08-14T10:32:16;6.88;;;6.15;;
11681;SDS011;5897;42.640;23.310;2022-08-14T10:34:47;6.43;;;5.82;;
11681;SDS011;5897;42.640;23.310;2022-08-14T10:37:16;5.90;;;5.40;;
11681;SDS011;5897;42.640;23.310;2022-08-14T10:39:56;6.57;;;5.78;;
11681;SDS011;5897;42.640;23.310;2022-08-14T10:42:33;7.18;;;6.57;;
11681;SDS011;5897;42.640;23.310;2022-08-14T10:45:00;6.65;;;6.05;;
11681;SDS011;5897;42.640;23.310;2022-08-14T10:47:33;11.18;;;8.98;;
11681;SDS011;5897;42.640;23.310;2022-08-14T10:50:01;9.20;;;8.13;;
11681;SDS011;5897;42.640;23.310;2022-08-14T10:52:30;8.50;;;7.13;;
11681;SDS011;5897;42.640;23.310;2022-08-14T10:55:05;6.10;;;5.60;;
11681;SDS011;5897;42.640;23.310;2022-08-14T10:57:45;5.45;;;4.95;;
11681;SDS011;5897;42.640;23.310;2022-08-14T11:00:14;5.28;;;4.80;;
11681;SDS011;5897;42.640;23.310;2022-08-14T11:02:42;5.88;;;5.38;;
11681;SDS011;5897;42.640;23.310;2022-08-14T11:05:10;6.30;;;5.70;;
11681;SDS011;5897;42.640;23.310;2022-08-14T11:07:41;6.13;;;5.63;;
11681;SDS011;5897;42.640;23.310;2022-08-14T11:10:20;5.95;;;5.45;;
11681;SDS011;5897;42.640;23.310;2022-08-14T11:12:49;5.22;;;4.40;;
11681;SDS011;5897;42.640;23.310;2022-08-14T11:15:19;5.25;;;4.75;;
11681;SDS011;5897;42.640;23.310;2022-08-14T11:17:48;4.78;;;4.38;;
11681;SDS011;5897;42.640;23.310;2022-08-14T11:20:17;4.25;;;3.90;;
11681;SDS011;5897;42.640;23.310;2022-08-14T11:22:47;4.38;;;3.97;;
11681;SDS011;5897;42.640;23.310;2022-08-14T11:25:19;4.40;;;4.00;;
11681;SDS011;5897;42.640;23.310;2022-08-14T11:27:48;5.55;;;5.00;;
11681;SDS011;5897;42.640;23.310;2022-08-14T11:30:18;6.25;;;5.75;;
11681;SDS011;5897;42.640;23.310;2022-08-14T11:32:47;4.22;;;3.83;;
11681;SDS011;5897;42.640;23.310;2022-08-14T11:35:15;4.35;;;4.00;;
11681;SDS011;5897;42.640;23.310;2022-08-14T11:37:54;4.50;;;4.18;;
11681;SDS011;5897;42.640;23.310;2022-08-14T11:40:23;4.38;;;3.97;;
11681;SDS011;5897;42.640;23.310;2022-08-14T11:42:53;4.10;;;3.80;;
11681;SDS011;5897;42.640;23.310;2022-08-14T11:45:21;4.10;;;3.80;;
11681;SDS011;5897;42.640;23.310;2022-08-14T11:47:49;4.68;;;4.28;;
11681;SDS011;5897;42.640;23.310;2022-08-14T11:50:18;5.30;;;4.28;;
11681;SDS011;5897;42.640;23.310;2022-08-14T11:52:47;4.93;;;4.53;;
11681;SDS011;5897;42.640;23.310;2022-08-14T11:55:15;4.97;;;4.53;;
11681;SDS011;5897;42.640;23.310;2022-08-14T11:57:45;4.82;;;4.43;;
11681;SDS011;5897;42.640;23.310;2022-08-14T12:00:14;4.80;;;4.40;;
11681;SDS011;5897;42.640;23.310;2022-08-14T12:02:51;4.90;;;4.38;;
11681;SDS011;5897;42.640;23.310;2022-08-14T12:05:28;5.38;;;4.60;;
11681;SDS011;5897;42.640;23.310;2022-08-14T12:07:57;4.93;;;4.30;;
11681;SDS011;5897;42.640;23.310;2022-08-14T12:10:25;4.15;;;3.85;;
11681;SDS011;5897;42.640;23.310;2022-08-14T12:12:53;4.47;;;4.05;;
11681;SDS011;5897;42.640;23.310;2022-08-14T12:15:28;4.72;;;4.25;;
11681;SDS011;5897;42.640;23.310;2022-08-14T12:17:56;4.30;;;3.80;;
11681;SDS011;5897;42.640;23.310;2022-08-14T12:20:27;3.95;;;3.65;;
11681;SDS011;5897;42.640;23.310;2022-08-14T12:22:54;5.95;;;3.72;;
11681;SDS011;5897;42.640;23.310;2022-08-14T12:25:22;4.82;;;4.05;;
11681;SDS011;5897;42.640;23.310;2022-08-14T12:27:51;3.90;;;3.60;;
11681;SDS011;5897;42.640;23.310;2022-08-14T12:30:30;4.25;;;3.95;;
11681;SDS011;5897;42.640;23.310;2022-08-14T12:32:58;4.60;;;4.18;;
11681;SDS011;5897;42.640;23.310;2022-08-14T12:35:35;4.07;;;3.72;;
11681;SDS011;5897;42.640;23.310;2022-08-14T12:38:03;4.00;;;3.70;;
11681;SDS011;5897;42.640;23.310;2022-08-14T12:40:30;3.97;;;3.67;;
11681;SDS011;5897;42.640;23.310;2022-08-14T12:43:02;3.92;;;3.47;;
11681;SDS011;5897;42.640;23.310;2022-08-14T12:45:30;4.00;;;3.70;;
11681;SDS011;5897;42.640;23.310;2022-08-14T12:47:59;3.90;;;3.60;;
11681;SDS011;5897;42.640;23.310;2022-08-14T12:50:34;4.10;;;3.80;;
11681;SDS011;5897;42.640;23.310;2022-08-14T12:53:02;4.05;;;3.65;;
11681;SDS011;5897;42.640;23.310;2022-08-14T12:55:29;3.90;;;3.60;;
11681;SDS011;5897;42.640;23.310;2022-08-14T12:57:59;3.88;;;3.58;;
11681;SDS011;5897;42.640;23.310;2022-08-14T13:00:30;5.00;;;3.72;;
11681;SDS011;5897;42.640;23.310;2022-08-14T13:02:59;4.10;;;3.78;;
11681;SDS011;5897;42.640;23.310;2022-08-14T13:05:29;4.38;;;4.03;;
11681;SDS011;5897;42.640;23.310;2022-08-14T13:07:59;4.80;;;4.40;;
11681;SDS011;5897;42.640;23.310;2022-08-14T13:10:30;4.78;;;4.32;;
11681;SDS011;5897;42.640;23.310;2022-08-14T13:12:58;4.50;;;4.10;;
11681;SDS011;5897;42.640;23.310;2022-08-14T13:15:26;5.57;;;4.50;;
11681;SDS011;5897;42.640;23.310;2022-08-14T13:17:55;4.07;;;3.78;;
11681;SDS011;5897;42.640;23.310;2022-08-14T13:20:24;4.35;;;3.95;;
11681;SDS011;5897;42.640;23.310;2022-08-14T13:22:52;5.45;;;4.13;;
11681;SDS011;5897;42.640;23.310;2022-08-14T13:25:20;3.95;;;3.65;;
11681;SDS011;5897;42.640;23.310;2022-08-14T13:27:50;3.67;;;3.40;;
11681;SDS011;5897;42.640;23.310;2022-08-14T13:30:19;4.15;;;3.75;;
11681;SDS011;5897;42.640;23.310;2022-08-14T13:32:47;3.63;;;3.33;;
11681;SDS011;5897;42.640;23.310;2022-08-14T13:35:16;3.70;;;3.40;;
11681;SDS011;5897;42.640;23.310;2022-08-14T13:37:43;3.60;;;3.30;;
11681;SDS011;5897;42.640;23.310;2022-08-14T13:40:11;3.35;;;3.05;;
11681;SDS011;5897;42.640;23.310;2022-08-14T13:42:41;3.85;;;3.30;;
11681;SDS011;5897;42.640;23.310;2022-08-14T13:45:09;3.28;;;3.08;;
11681;SDS011;5897;42.640;23.310;2022-08-14T13:47:38;4.68;;;3.45;;
11681;SDS011;5897;42.640;23.310;2022-08-14T13:50:05;3.72;;;3.20;;
11681;SDS011;5897;42.640;23.310;2022-08-14T13:52:38;3.70;;;3.17;;
11681;SDS011;5897;42.640;23.310;2022-08-14T13:55:07;3.85;;;3.55;;
11681;SDS011;5897;42.640;23.310;2022-08-14T13:57:37;3.55;;;3.28;;
11681;SDS011;5897;42.640;23.310;2022-08-14T14:00:06;5.03;;;3.28;;
11681;SDS011;5897;42.640;23.310;2022-08-14T14:02:36;3.92;;;3.58;;
11681;SDS011;5897;42.640;23.310;2022-08-14T14:05:04;3.65;;;3.30;;
11681;SDS011;5897;42.640;23.310;2022-08-14T14:07:32;3.88;;;3.58;;
11681;SDS011;5897;42.640;23.310;2022-08-14T14:10:03;3.53;;;3.22;;
11681;SDS011;5897;42.640;23.310;2022-08-14T14:12:32;3.88;;;3.47;;
11681;SDS011;5897;42.640;23.310;2022-08-14T14:15:02;3.60;;;3.30;;
11681;SDS011;5897;42.640;23.310;2022-08-14T14:17:30;3.85;;;3.55;;
11681;SDS011;5897;42.640;23.310;2022-08-14T14:19:57;4.15;;;3.67;;
11681;SDS011;5897;42.640;23.310;2022-08-14T14:22:24;4.63;;;3.65;;
11681;SDS011;5897;42.640;23.310;2022-08-14T14:24:52;4.43;;;3.92;;
11681;SDS011;5897;42.640;23.310;2022-08-14T14:27:21;4.47;;;4.07;;
11681;SDS011;5897;42.640;23.310;2022-08-14T14:29:53;4.10;;;3.80;;
11681;SDS011;5897;42.640;23.310;2022-08-14T14:32:23;7.38;;;4.40;;
11681;SDS011;5897;42.640;23.310;2022-08-14T14:34:56;4.75;;;4.35;;
11681;SDS011;5897;42.640;23.310;2022-08-14T14:37:25;4.60;;;4.20;;
11681;SDS011;5897;42.640;23.310;2022-08-14T14:39:53;4.65;;;3.97;;
11681;SDS011;5897;42.640;23.310;2022-08-14T14:42:23;4.57;;;4.07;;
11681;SDS011;5897;42.640;23.310;2022-08-14T14:44:51;4.95;;;4.50;;
11681;SDS011;5897;42.640;23.310;2022-08-14T14:47:25;5.00;;;4.55;;